createdAt,value
2022-08-14T00:08:59.246Z,27.92
2022-08-14T00:19:05.943Z,27.90
2022-08-14T00:29:20.339Z,27.89
2022-08-14T00:39:21.709Z,27.88
2022-08-14T00:49:26.151Z,27.87
2022-08-14T00:59:28.046Z,27.88
2022-08-14T01:09:30.056Z,27.86
2022-08-14T01:19:33.021Z,27.83
2022-08-14T01:29:58.287Z,27.80
2022-08-14T01:39:57.358Z,27.77
2022-08-14T01:50:10.257Z,27.76
2022-08-14T02:00:11.571Z,27.78
2022-08-14T02:10:19.658Z,27.79
2022-08-14T02:20:27.772Z,27.80
2022-08-14T02:30:30.747Z,27.71
2022-08-14T02:40:33.789Z,27.72
2022-08-14T02:50:37.605Z,27.67
2022-08-14T03:00:40.722Z,27.66
2022-08-14T03:10:49.332Z,27.64
2022-08-14T03:20:53.810Z,27.66
2022-08-14T03:30:55.078Z,27.62
2022-08-14T03:40:56.357Z,27.71
2022-08-14T03:50:57.642Z,27.61
2022-08-14T04:01:00.233Z,27.59
2022-08-14T04:11:02.674Z,27.55
2022-08-14T04:21:05.841Z,27.58
2022-08-14T04:31:07.127Z,27.58
2022-08-14T04:41:11.004Z,27.59
2022-08-14T04:51:12.393Z,27.55
2022-08-14T05:01:19.502Z,27.56
2022-08-14T05:11:21.092Z,27.53
2022-08-14T05:21:59.823Z,27.66
2022-08-14T05:31:55.919Z,27.67
2022-08-14T05:41:59.005Z,27.77
2022-08-14T05:52:02.610Z,27.80
2022-08-14T06:02:05.851Z,27.83
2022-08-14T06:12:55.845Z,27.89
2022-08-14T06:22:40.207Z,27.91
2022-08-14T06:32:52.858Z,27.94
2022-08-14T06:42:55.814Z,27.93
2022-08-14T06:52:58.002Z,27.96
2022-08-14T07:13:30.637Z,28.00
2022-08-14T07:23:32.484Z,28.01
2022-08-14T07:33:34.076Z,28.03
2022-08-14T07:43:40.374Z,28.05
2022-08-14T07:53:45.524Z,28.08
2022-08-14T08:03:59.614Z,28.08
2022-08-14T08:14:17.450Z,28.11
2022-08-14T08:24:20.739Z,28.10
2022-08-14T08:34:32.401Z,28.07
2022-08-14T08:44:35.425Z,28.07
2022-08-14T08:54:49.880Z,28.08
2022-08-14T09:04:53.623Z,28.07
2022-08-14T09:15:01.020Z,28.08
2022-08-14T09:25:10.482Z,28.14
2022-08-14T09:35:13.876Z,28.11
2022-08-14T09:45:21.503Z,28.12
2022-08-14T09:55:36.873Z,28.15
2022-08-14T10:05:43.386Z,28.15
2022-08-14T10:15:53.385Z,28.17
2022-08-14T10:26:00.593Z,28.19
2022-08-14T10:36:09.960Z,28.21
2022-08-14T10:47:41.382Z,28.22
2022-08-14T10:56:52.465Z,28.22
2022-08-14T11:07:01.496Z,28.28
2022-08-14T11:17:05.924Z,28.32
2022-08-14T11:27:11.100Z,28.28
2022-08-14T11:37:18.241Z,28.28
2022-08-14T11:47:35.362Z,28.29
2022-08-14T11:58:00.070Z,28.28
2022-08-14T12:08:06.691Z,28.28
2022-08-14T12:18:19.950Z,28.29
2022-08-14T12:28:27.417Z,28.30
2022-08-14T12:38:36.502Z,28.43
2022-08-14T12:48:38.285Z,28.45
2022-08-14T12:58:51.478Z,28.52
2022-08-14T13:08:59.964Z,28.57
2022-08-14T13:19:02.180Z,28.59
2022-08-14T13:29:03.861Z,28.57
2022-08-14T13:39:07.409Z,28.54
2022-08-14T13:49:15.377Z,28.67
2022-08-14T13:59:37.207Z,28.67
2022-08-14T14:09:51.058Z,28.72
2022-08-14T14:19:54.422Z,28.75
2022-08-14T14:29:58.567Z,28.74
2022-08-14T14:40:52.627Z,28.70
2022-08-14T14:50:21.707Z,28.74
2022-08-14T15:00:30.962Z,28.79
2022-08-14T15:10:35.383Z,28.79
2022-08-14T15:20:39.311Z,28.80
2022-08-14T15:30:42.151Z,28.82
2022-08-14T15:40:51.301Z,28.83
2022-08-14T15:50:54.336Z,28.83
2022-08-14T16:01:03.524Z,28.87
2022-08-14T16:11:11.439Z,28.89
2022-08-14T16:21:24.223Z,28.90
2022-08-14T16:31:36.150Z,28.87
2022-08-14T16:41:52.068Z,28.84
2022-08-14T16:51:53.795Z,28.85
2022-08-14T17:01:55.076Z,28.88
2022-08-14T17:12:33.698Z,28.88
2022-08-14T17:22:28.454Z,28.86
2022-08-14T17:32:56.749Z,28.85
2022-08-14T17:42:54.173Z,28.84
2022-08-14T17:52:56.044Z,28.84
2022-08-14T18:13:13.518Z,28.81
2022-08-14T18:23:15.238Z,28.80
2022-08-14T18:33:18.020Z,28.78
2022-08-14T18:43:22.431Z,28.81
2022-08-14T18:53:24.931Z,28.80
2022-08-14T19:03:26.592Z,28.80
2022-08-14T19:13:48.298Z,28.77
2022-08-14T19:23:59.626Z,28.78
2022-08-14T19:34:01.555Z,28.78
2022-08-14T19:44:10.154Z,28.76
2022-08-14T19:54:28.621Z,28.77
2022-08-14T20:25:30.383Z,28.73
2022-08-14T20:35:35.858Z,28.74
2022-08-14T21:06:30.411Z,28.76
2022-08-14T21:16:58.240Z,28.75
2022-08-14T21:27:13.075Z,28.74
2022-08-14T21:37:21.254Z,28.76
2022-08-14T21:47:23.655Z,28.76
2022-08-14T21:58:46.010Z,28.77
2022-08-14T22:07:46.509Z,28.75
2022-08-14T22:17:55.534Z,28.73
2022-08-14T22:27:57.693Z,28.77
2022-08-14T22:38:01.485Z,28.73
2022-08-14T22:48:20.347Z,28.72
2022-08-14T22:58:31.853Z,28.71
2022-08-14T23:19:12.794Z,28.68
2022-08-14T23:29:14.275Z,28.67
2022-08-14T23:39:20.779Z,28.67
2022-08-14T23:49:22.115Z,28.65
2022-08-14T23:59:24.904Z,28.65
